sensor_id;sensor_type;location;lat;lon;timestamp;P1;durP1;ratioP1;P2;durP2;ratioP2
80910;SDS011;70359;51.420;7.032;2023-08-12T00:01:57;10.9;;;9.2;;
80910;SDS011;70359;51.420;7.032;2023-08-12T00:04:22;10.4;;;9.3;;
80910;SDS011;70359;51.420;7.032;2023-08-12T00:06:51;10.4;;;9.3;;
80910;SDS011;70359;51.420;7.032;2023-08-12T00:09:12;8.6;;;7.8;;
80910;SDS011;70359;51.420;7.032;2023-08-12T00:11:38;8.6;;;7.8;;
80910;SDS011;70359;51.420;7.032;2023-08-12T00:14:02;12.1;;;9.8;;
80910;SDS011;70359;51.420;7.032;2023-08-12T00:16:27;12.1;;;9.8;;
80910;SDS011;70359;51.420;7.032;2023-08-12T00:18:52;8.6;;;7.8;;
80910;SDS011;70359;51.420;7.032;2023-08-12T00:21:17;8.6;;;7.8;;
80910;SDS011;70359;51.420;7.032;2023-08-12T00:23:42;10.8;;;8.1;;
80910;SDS011;70359;51.420;7.032;2023-08-12T00:26:08;10.8;;;8.1;;
80910;SDS011;70359;51.420;7.032;2023-08-12T00:28:32;10.8;;;8.1;;
80910;SDS011;70359;51.420;7.032;2023-08-12T00:30:57;9.3;;;8.4;;
80910;SDS011;70359;51.420;7.032;2023-08-12T00:33:22;9.3;;;8.4;;
80910;SDS011;70359;51.420;7.032;2023-08-12T00:35:47;9.4;;;8.5;;
80910;SDS011;70359;51.420;7.032;2023-08-12T00:38:12;9.4;;;8.5;;
80910;SDS011;70359;51.420;7.032;2023-08-12T00:40:37;9.6;;;8.6;;
80910;SDS011;70359;51.420;7.032;2023-08-12T00:43:02;9.6;;;8.6;;
80910;SDS011;70359;51.420;7.032;2023-08-12T00:45:27;9.4;;;8.5;;
80910;SDS011;70359;51.420;7.032;2023-08-12T00:47:53;9.4;;;8.5;;
80910;SDS011;70359;51.420;7.032;2023-08-12T00:50:17;8.7;;;7.5;;
80910;SDS011;70359;51.420;7.032;2023-08-12T00:52:46;8.7;;;7.5;;
80910;SDS011;70359;51.420;7.032;2023-08-12T00:55:08;8.6;;;7.8;;
80910;SDS011;70359;51.420;7.032;2023-08-12T00:57:32;8.6;;;7.8;;
80910;SDS011;70359;51.420;7.032;2023-08-12T00:59:58;9.8;;;8.1;;
80910;SDS011;70359;51.420;7.032;2023-08-12T01:02:26;9.8;;;8.1;;
80910;SDS011;70359;51.420;7.032;2023-08-12T01:04:47;12.1;;;8.2;;
80910;SDS011;70359;51.420;7.032;2023-08-12T01:07:12;12.1;;;8.2;;
80910;SDS011;70359;51.420;7.032;2023-08-12T01:09:41;9;;;8.2;;
80910;SDS011;70359;51.420;7.032;2023-08-12T01:12:06;9;;;8.2;;
80910;SDS011;70359;51.420;7.032;2023-08-12T01:14:34;9.4;;;7.6;;
80910;SDS011;70359;51.420;7.032;2023-08-12T01:16:57;9.4;;;7.6;;
80910;SDS011;70359;51.420;7.032;2023-08-12T01:19:22;9.3;;;7.5;;
80910;SDS011;70359;51.420;7.032;2023-08-12T01:21:43;9.3;;;7.5;;
80910;SDS011;70359;51.420;7.032;2023-08-12T01:24:07;8.5;;;7.2;;
80910;SDS011;70359;51.420;7.032;2023-08-12T01:26:36;8.5;;;7.2;;
80910;SDS011;70359;51.420;7.032;2023-08-12T01:28:57;10.5;;;6.6;;
80910;SDS011;70359;51.420;7.032;2023-08-12T01:31:28;10.5;;;6.6;;
80910;SDS011;70359;51.420;7.032;2023-08-12T01:33:51;10.7;;;7.2;;
80910;SDS011;70359;51.420;7.032;2023-08-12T01:36:16;10.7;;;7.2;;
80910;SDS011;70359;51.420;7.032;2023-08-12T01:38:38;10.7;;;7.2;;
80910;SDS011;70359;51.420;7.032;2023-08-12T01:41:03;7.7;;;6.9;;
80910;SDS011;70359;51.420;7.032;2023-08-12T01:43:27;7.7;;;6.9;;
80910;SDS011;70359;51.420;7.032;2023-08-12T01:45:52;6.7;;;6.1;;
80910;SDS011;70359;51.420;7.032;2023-08-12T01:48:17;6.7;;;6.1;;
80910;SDS011;70359;51.420;7.032;2023-08-12T01:50:42;7;;;6.3;;
80910;SDS011;70359;51.420;7.032;2023-08-12T01:53:07;7;;;6.3;;
80910;SDS011;70359;51.420;7.032;2023-08-12T01:55:32;7.2;;;6;;
80910;SDS011;70359;51.420;7.032;2023-08-12T01:57:57;7.2;;;6;;
80910;SDS011;70359;51.420;7.032;2023-08-12T02:00:22;7.6;;;6.5;;
80910;SDS011;70359;51.420;7.032;2023-08-12T02:02:47;7.6;;;6.5;;
80910;SDS011;70359;51.420;7.032;2023-08-12T02:05:16;8.2;;;6.9;;
80910;SDS011;70359;51.420;7.032;2023-08-12T02:07:37;8.2;;;6.9;;
80910;SDS011;70359;51.420;7.032;2023-08-12T02:10:07;7.9;;;5.8;;
80910;SDS011;70359;51.420;7.032;2023-08-12T02:12:27;7.9;;;5.8;;
80910;SDS011;70359;51.420;7.032;2023-08-12T02:14:52;6.5;;;4.9;;
80910;SDS011;70359;51.420;7.032;2023-08-12T02:17:17;6.5;;;4.9;;
80910;SDS011;70359;51.420;7.032;2023-08-12T02:19:46;4;;;3.6;;
80910;SDS011;70359;51.420;7.032;2023-08-12T02:22:11;4;;;3.6;;
80910;SDS011;70359;51.420;7.032;2023-08-12T02:24:32;4;;;3.6;;
80910;SDS011;70359;51.420;7.032;2023-08-12T02:26:57;4;;;3.6;;
80910;SDS011;70359;51.420;7.032;2023-08-12T02:29:22;3.7;;;3.4;;
80910;SDS011;70359;51.420;7.032;2023-08-12T02:31:47;3.7;;;3.4;;
80910;SDS011;70359;51.420;7.032;2023-08-12T02:34:12;3.5;;;3.2;;
80910;SDS011;70359;51.420;7.032;2023-08-12T02:36:37;3.5;;;3.2;;
80910;SDS011;70359;51.420;7.032;2023-08-12T02:39:03;3.8;;;3.3;;
80910;SDS011;70359;51.420;7.032;2023-08-12T02:41:27;3.8;;;3.3;;
80910;SDS011;70359;51.420;7.032;2023-08-12T02:43:52;3.4;;;3.1;;
80910;SDS011;70359;51.420;7.032;2023-08-12T02:46:17;3.4;;;3.1;;
80910;SDS011;70359;51.420;7.032;2023-08-12T02:48:43;3.4;;;3.1;;
80910;SDS011;70359;51.420;7.032;2023-08-12T02:51:11;3.4;;;3;;
80910;SDS011;70359;51.420;7.032;2023-08-12T02:53:32;3.4;;;3;;
80910;SDS011;70359;51.420;7.032;2023-08-12T02:55:57;3.9;;;3.1;;
80910;SDS011;70359;51.420;7.032;2023-08-12T02:58:23;3.9;;;3.1;;
80910;SDS011;70359;51.420;7.032;2023-08-12T03:00:47;3.3;;;2.8;;
80910;SDS011;70359;51.420;7.032;2023-08-12T03:03:12;3.3;;;2.8;;
80910;SDS011;70359;51.420;7.032;2023-08-12T03:05:37;4.2;;;3.2;;
80910;SDS011;70359;51.420;7.032;2023-08-12T03:08:03;4.2;;;3.2;;
80910;SDS011;70359;51.420;7.032;2023-08-12T03:10:28;3.6;;;3.1;;
80910;SDS011;70359;51.420;7.032;2023-08-12T03:12:53;3.6;;;3.1;;
80910;SDS011;70359;51.420;7.032;2023-08-12T03:15:22;3.8;;;3.4;;
80910;SDS011;70359;51.420;7.032;2023-08-12T03:17:46;3.8;;;3.4;;
80910;SDS011;70359;51.420;7.032;2023-08-12T03:20:08;4;;;3.7;;
80910;SDS011;70359;51.420;7.032;2023-08-12T03:22:33;4;;;3.7;;
80910;SDS011;70359;51.420;7.032;2023-08-12T03:24:58;4.1;;;3.8;;
80910;SDS011;70359;51.420;7.032;2023-08-12T03:27:23;4.1;;;3.8;;
80910;SDS011;70359;51.420;7.032;2023-08-12T03:29:48;4.3;;;3.9;;
80910;SDS011;70359;51.420;7.032;2023-08-12T03:32:13;4.3;;;3.9;;
80910;SDS011;70359;51.420;7.032;2023-08-12T03:34:42;5.1;;;4.7;;
80910;SDS011;70359;51.420;7.032;2023-08-12T03:37:03;5.1;;;4.7;;
80910;SDS011;70359;51.420;7.032;2023-08-12T03:39:28;5.2;;;4.7;;
80910;SDS011;70359;51.420;7.032;2023-08-12T03:41:53;5.2;;;4.7;;
80910;SDS011;70359;51.420;7.032;2023-08-12T03:44:18;5.8;;;5.2;;
80910;SDS011;70359;51.420;7.032;2023-08-12T03:46:47;5.8;;;5.2;;
80910;SDS011;70359;51.420;7.032;2023-08-12T03:49:08;6.3;;;4.7;;
80910;SDS011;70359;51.420;7.032;2023-08-12T03:51:33;6.3;;;4.7;;
80910;SDS011;70359;51.420;7.032;2023-08-12T03:53:59;5.1;;;4.4;;
80910;SDS011;70359;51.420;7.032;2023-08-12T03:56:23;5.1;;;4.4;;
80910;SDS011;70359;51.420;7.032;2023-08-12T03:58:48;5.1;;;4.4;;
80910;SDS011;70359;51.420;7.032;2023-08-12T04:01:13;5.1;;;4.6;;
80910;SDS011;70359;51.420;7.032;2023-08-12T04:03:38;5.1;;;4.6;;
80910;SDS011;70359;51.420;7.032;2023-08-12T04:06:03;7.3;;;5.3;;
80910;SDS011;70359;51.420;7.032;2023-08-12T04:08:28;7.3;;;5.3;;
80910;SDS011;70359;51.420;7.032;2023-08-12T04:10:53;4.4;;;4;;
80910;SDS011;70359;51.420;7.032;2023-08-12T04:13:18;4.4;;;4;;
80910;SDS011;70359;51.420;7.032;2023-08-12T04:15:47;4.8;;;4.4;;
80910;SDS011;70359;51.420;7.032;2023-08-12T04:18:08;4.8;;;4.4;;
80910;SDS011;70359;51.420;7.032;2023-08-12T04:20:33;5.9;;;4.4;;
80910;SDS011;70359;51.420;7.032;2023-08-12T04:23:02;5.9;;;4.4;;
80910;SDS011;70359;51.420;7.032;2023-08-12T04:25:23;4.7;;;3.9;;
80910;SDS011;70359;51.420;7.032;2023-08-12T04:27:48;4.7;;;3.9;;
80910;SDS011;70359;51.420;7.032;2023-08-12T04:30:17;3.8;;;3.5;;
80910;SDS011;70359;51.420;7.032;2023-08-12T04:32:38;3.8;;;3.5;;
80910;SDS011;70359;51.420;7.032;2023-08-12T04:35:03;3.6;;;3.3;;
80910;SDS011;70359;51.420;7.032;2023-08-12T04:37:28;3.6;;;3.3;;
80910;SDS011;70359;51.420;7.032;2023-08-12T04:39:53;3.8;;;3.5;;
80910;SDS011;70359;51.420;7.032;2023-08-12T04:42:18;3.8;;;3.5;;
80910;SDS011;70359;51.420;7.032;2023-08-12T04:44:43;3.4;;;3.1;;
80910;SDS011;70359;51.420;7.032;2023-08-12T04:47:08;3.4;;;3.1;;
80910;SDS011;70359;51.420;7.032;2023-08-12T04:49:33;3.4;;;3.1;;
80910;SDS011;70359;51.420;7.032;2023-08-12T04:51:58;3.4;;;3.1;;
80910;SDS011;70359;51.420;7.032;2023-08-12T04:54:23;3.3;;;3;;
80910;SDS011;70359;51.420;7.032;2023-08-12T04:56:48;3.3;;;3;;
80910;SDS011;70359;51.420;7.032;2023-08-12T04:59:13;3.4;;;3.1;;
80910;SDS011;70359;51.420;7.032;2023-08-12T05:01:38;3.4;;;3.1;;
80910;SDS011;70359;51.420;7.032;2023-08-12T05:04:03;3.4;;;3.1;;
80910;SDS011;70359;51.420;7.032;2023-08-12T05:06:32;3;;;2.5;;
80910;SDS011;70359;51.420;7.032;2023-08-12T05:08:53;3;;;2.5;;
80910;SDS011;70359;51.420;7.032;2023-08-12T05:11:22;3.9;;;3;;
80910;SDS011;70359;51.420;7.032;2023-08-12T05:13:43;3.9;;;3;;
80910;SDS011;70359;51.420;7.032;2023-08-12T05:16:08;5.9;;;2.9;;
80910;SDS011;70359;51.420;7.032;2023-08-12T05:18:33;5.9;;;2.9;;
80910;SDS011;70359;51.420;7.032;2023-08-12T05:21:02;3.4;;;3;;
80910;SDS011;70359;51.420;7.032;2023-08-12T05:23:23;3.4;;;3;;
80910;SDS011;70359;51.420;7.032;2023-08-12T05:25:48;3.6;;;3.3;;
80910;SDS011;70359;51.420;7.032;2023-08-12T05:28:13;3.6;;;3.3;;
80910;SDS011;70359;51.420;7.032;2023-08-12T05:30:38;4.3;;;3.7;;
80910;SDS011;70359;51.420;7.032;2023-08-12T05:33:03;4.3;;;3.7;;
80910;SDS011;70359;51.420;7.032;2023-08-12T05:35:28;5.2;;;3.1;;
80910;SDS011;70359;51.420;7.032;2023-08-12T05:37:53;5.2;;;3.1;;
80910;SDS011;70359;51.420;7.032;2023-08-12T05:40:18;3.5;;;3.2;;
80910;SDS011;70359;51.420;7.032;2023-08-12T05:42:47;3.5;;;3.2;;
80910;SDS011;70359;51.420;7.032;2023-08-12T05:45:08;3.2;;;2.8;;
80910;SDS011;70359;51.420;7.032;2023-08-12T05:47:33;3.2;;;2.8;;
80910;SDS011;70359;51.420;7.032;2023-08-12T05:49:58;3.3;;;3;;
80910;SDS011;70359;51.420;7.032;2023-08-12T05:52:23;3.3;;;3;;
80910;SDS011;70359;51.420;7.032;2023-08-12T05:54:48;3.1;;;2.8;;
80910;SDS011;70359;51.420;7.032;2023-08-12T05:57:13;3.1;;;2.8;;
80910;SDS011;70359;51.420;7.032;2023-08-12T05:59:38;3.5;;;3.2;;
80910;SDS011;70359;51.420;7.032;2023-08-12T06:02:07;3.5;;;3.2;;
80910;SDS011;70359;51.420;7.032;2023-08-12T06:04:28;4.2;;;3.4;;
80910;SDS011;70359;51.420;7.032;2023-08-12T06:06:53;4.2;;;3.4;;
80910;SDS011;70359;51.420;7.032;2023-08-12T06:09:18;3.1;;;2.8;;
80910;SDS011;70359;51.420;7.032;2023-08-12T06:11:43;3.1;;;2.8;;
80910;SDS011;70359;51.420;7.032;2023-08-12T06:14:08;3.1;;;2.8;;
80910;SDS011;70359;51.420;7.032;2023-08-12T06:16:33;2.7;;;2.5;;
80910;SDS011;70359;51.420;7.032;2023-08-12T06:18:58;2.7;;;2.5;;
80910;SDS011;70359;51.420;7.032;2023-08-12T06:21:27;3.1;;;2.8;;
80910;SDS011;70359;51.420;7.032;2023-08-12T06:23:48;3.1;;;2.8;;
80910;SDS011;70359;51.420;7.032;2023-08-12T06:26:13;3.6;;;3.2;;
80910;SDS011;70359;51.420;7.032;2023-08-12T06:28:38;3.6;;;3.2;;
80910;SDS011;70359;51.420;7.032;2023-08-12T06:31:07;2.7;;;2.5;;
80910;SDS011;70359;51.420;7.032;2023-08-12T06:33:32;2.7;;;2.5;;
80910;SDS011;70359;51.420;7.032;2023-08-12T06:35:57;3.4;;;3;;
80910;SDS011;70359;51.420;7.032;2023-08-12T06:38:18;3.4;;;3;;
80910;SDS011;70359;51.420;7.032;2023-08-12T06:40:43;3.2;;;2.5;;
80910;SDS011;70359;51.420;7.032;2023-08-12T06:43:08;3.2;;;2.5;;
80910;SDS011;70359;51.420;7.032;2023-08-12T06:45:33;2.4;;;2.2;;
80910;SDS011;70359;51.420;7.032;2023-08-12T06:47:58;2.4;;;2.2;;
80910;SDS011;70359;51.420;7.032;2023-08-12T06:50:23;2.7;;;2.5;;
80910;SDS011;70359;51.420;7.032;2023-08-12T06:52:52;2.7;;;2.5;;
80910;SDS011;70359;51.420;7.032;2023-08-12T06:55:13;2.2;;;2;;
80910;SDS011;70359;51.420;7.032;2023-08-12T06:57:38;2.2;;;2;;
80910;SDS011;70359;51.420;7.032;2023-08-12T07:00:04;2.5;;;2.2;;
80910;SDS011;70359;51.420;7.032;2023-08-12T07:02:28;2.5;;;2.2;;
80910;SDS011;70359;51.420;7.032;2023-08-12T07:04:53;2.5;;;2.1;;
80910;SDS011;70359;51.420;7.032;2023-08-12T07:07:18;2.5;;;2.1;;
80910;SDS011;70359;51.420;7.032;2023-08-12T07:09:43;1.9;;;1.8;;
80910;SDS011;70359;51.420;7.032;2023-08-12T07:12:08;1.9;;;1.8;;
80910;SDS011;70359;51.420;7.032;2023-08-12T07:14:33;2.2;;;2;;
80910;SDS011;70359;51.420;7.032;2023-08-12T07:16:58;2.2;;;2;;
80910;SDS011;70359;51.420;7.032;2023-08-12T07:19:23;2.4;;;2.2;;
80910;SDS011;70359;51.420;7.032;2023-08-12T07:21:48;2.4;;;2.2;;
80910;SDS011;70359;51.420;7.032;2023-08-12T07:24:13;2.4;;;2.2;;
80910;SDS011;70359;51.420;7.032;2023-08-12T07:26:38;2.3;;;1.9;;
80910;SDS011;70359;51.420;7.032;2023-08-12T07:29:03;2.3;;;1.9;;
80910;SDS011;70359;51.420;7.032;2023-08-12T07:31:28;2.1;;;1.8;;
80910;SDS011;70359;51.420;7.032;2023-08-12T07:33:53;2.1;;;1.8;;
80910;SDS011;70359;51.420;7.032;2023-08-12T07:36:18;2.4;;;2.2;;
80910;SDS011;70359;51.420;7.032;2023-08-12T07:38:43;2.4;;;2.2;;
80910;SDS011;70359;51.420;7.032;2023-08-12T07:41:08;2.3;;;2.1;;
80910;SDS011;70359;51.420;7.032;2023-08-12T07:43:33;2.3;;;2.1;;
80910;SDS011;70359;51.420;7.032;2023-08-12T07:46:02;1.9;;;1.8;;
80910;SDS011;70359;51.420;7.032;2023-08-12T07:48:23;1.9;;;1.8;;
80910;SDS011;70359;51.420;7.032;2023-08-12T07:50:58;2.3;;;2.1;;
80910;SDS011;70359;51.420;7.032;2023-08-12T07:53:13;2.3;;;2.1;;
80910;SDS011;70359;51.420;7.032;2023-08-12T07:55:38;2.9;;;2;;
80910;SDS011;70359;51.420;7.032;2023-08-12T07:58:03;2.9;;;2;;
80910;SDS011;70359;51.420;7.032;2023-08-12T08:00:28;2.3;;;2.1;;
80910;SDS011;70359;51.420;7.032;2023-08-12T08:02:53;2.3;;;2.1;;
80910;SDS011;70359;51.420;7.032;2023-08-12T08:05:18;2.3;;;2.2;;
80910;SDS011;70359;51.420;7.032;2023-08-12T08:07:43;2.3;;;2.2;;
80910;SDS011;70359;51.420;7.032;2023-08-12T08:10:09;3.3;;;3;;
80910;SDS011;70359;51.420;7.032;2023-08-12T08:12:33;3.3;;;3;;
80910;SDS011;70359;51.420;7.032;2023-08-12T08:15:02;4;;;2.7;;
80910;SDS011;70359;51.420;7.032;2023-08-12T08:17:23;4;;;2.7;;
80910;SDS011;70359;51.420;7.032;2023-08-12T08:19:48;2.9;;;2.6;;
80910;SDS011;70359;51.420;7.032;2023-08-12T08:22:13;2.9;;;2.6;;
80910;SDS011;70359;51.420;7.032;2023-08-12T08:24:38;3;;;2.8;;
80910;SDS011;70359;51.420;7.032;2023-08-12T08:27:07;3;;;2.8;;
80910;SDS011;70359;51.420;7.032;2023-08-12T08:29:33;2.7;;;2.5;;
80910;SDS011;70359;51.420;7.032;2023-08-12T08:31:57;2.7;;;2.5;;
80910;SDS011;70359;51.420;7.032;2023-08-12T08:34:22;2.7;;;2.5;;
80910;SDS011;70359;51.420;7.032;2023-08-12T08:36:43;2.7;;;2.5;;
80910;SDS011;70359;51.420;7.032;2023-08-12T08:39:08;2.7;;;2.5;;
80910;SDS011;70359;51.420;7.032;2023-08-12T08:41:37;2.7;;;2.5;;
80910;SDS011;70359;51.420;7.032;2023-08-12T08:44:01;2.7;;;2.5;;
80910;SDS011;70359;51.420;7.032;2023-08-12T08:46:23;3.1;;;2.9;;
80910;SDS011;70359;51.420;7.032;2023-08-12T08:48:49;3.1;;;2.9;;
80910;SDS011;70359;51.420;7.032;2023-08-12T08:51:13;3.1;;;2.9;;
80910;SDS011;70359;51.420;7.032;2023-08-12T08:53:40;3.1;;;2.9;;
80910;SDS011;70359;51.420;7.032;2023-08-12T08:56:04;3.3;;;3;;
80910;SDS011;70359;51.420;7.032;2023-08-12T08:58:28;3.3;;;3;;
80910;SDS011;70359;51.420;7.032;2023-08-12T09:00:57;3.2;;;2.9;;
80910;SDS011;70359;51.420;7.032;2023-08-12T09:03:20;3.2;;;2.9;;
80910;SDS011;70359;51.420;7.032;2023-08-12T09:05:44;2.8;;;2.6;;
80910;SDS011;70359;51.420;7.032;2023-08-12T09:08:09;2.8;;;2.6;;
80910;SDS011;70359;51.420;7.032;2023-08-12T09:10:36;4.1;;;2.7;;
80910;SDS011;70359;51.420;7.032;2023-08-12T09:12:58;4.1;;;2.7;;
80910;SDS011;70359;51.420;7.032;2023-08-12T09:15:23;2.7;;;2.5;;
80910;SDS011;70359;51.420;7.032;2023-08-12T09:17:48;2.7;;;2.5;;
80910;SDS011;70359;51.420;7.032;2023-08-12T09:20:14;2.4;;;2.2;;
80910;SDS011;70359;51.420;7.032;2023-08-12T09:22:39;2.4;;;2.2;;
80910;SDS011;70359;51.420;7.032;2023-08-12T09:25:04;2.4;;;2.2;;
80910;SDS011;70359;51.420;7.032;2023-08-12T09:27:29;2.4;;;2.2;;
80910;SDS011;70359;51.420;7.032;2023-08-12T09:29:55;2.2;;;2.1;;
80910;SDS011;70359;51.420;7.032;2023-08-12T09:32:21;2.2;;;2.1;;
80910;SDS011;70359;51.420;7.032;2023-08-12T09:34:50;1.7;;;1.6;;
80910;SDS011;70359;51.420;7.032;2023-08-12T09:37:12;1.7;;;1.6;;
80910;SDS011;70359;51.420;7.032;2023-08-12T09:39:34;1.7;;;1.6;;
80910;SDS011;70359;51.420;7.032;2023-08-12T09:41:58;6.6;;;2.3;;
80910;SDS011;70359;51.420;7.032;2023-08-12T09:44:28;6.6;;;2.3;;
80910;SDS011;70359;51.420;7.032;2023-08-12T09:46:55;2.1;;;1.9;;
80910;SDS011;70359;51.420;7.032;2023-08-12T09:49:13;2.1;;;1.9;;
80910;SDS011;70359;51.420;7.032;2023-08-12T09:51:43;1.8;;;1.7;;
80910;SDS011;70359;51.420;7.032;2023-08-12T09:54:04;1.8;;;1.7;;
80910;SDS011;70359;51.420;7.032;2023-08-12T09:56:32;2.2;;;2;;
80910;SDS011;70359;51.420;7.032;2023-08-12T09:58:55;2.2;;;2;;
80910;SDS011;70359;51.420;7.032;2023-08-12T10:01:20;2.2;;;2;;
80910;SDS011;70359;51.420;7.032;2023-08-12T10:03:51;2.2;;;2;;
80910;SDS011;70359;51.420;7.032;2023-08-12T10:06:13;1.4;;;1.3;;
80910;SDS011;70359;51.420;7.032;2023-08-12T10:08:35;1.4;;;1.3;;
80910;SDS011;70359;51.420;7.032;2023-08-12T10:10:59;1.5;;;1.4;;
80910;SDS011;70359;51.420;7.032;2023-08-12T10:13:28;1.5;;;1.4;;
80910;SDS011;70359;51.420;7.032;2023-08-12T10:15:49;1.4;;;1.3;;
80910;SDS011;70359;51.420;7.032;2023-08-12T10:18:14;1.4;;;1.3;;
80910;SDS011;70359;51.420;7.032;2023-08-12T10:20:39;1.7;;;1.5;;
80910;SDS011;70359;51.420;7.032;2023-08-12T10:23:04;1.7;;;1.5;;
80910;SDS011;70359;51.420;7.032;2023-08-12T10:25:31;1.3;;;1.2;;
80910;SDS011;70359;51.420;7.032;2023-08-12T10:27:57;1.3;;;1.2;;
80910;SDS011;70359;51.420;7.032;2023-08-12T10:30:24;1.5;;;1.4;;
80910;SDS011;70359;51.420;7.032;2023-08-12T10:32:45;1.5;;;1.4;;
80910;SDS011;70359;51.420;7.032;2023-08-12T10:35:13;1.3;;;1.2;;
80910;SDS011;70359;51.420;7.032;2023-08-12T10:37:34;1.3;;;1.2;;
80910;SDS011;70359;51.420;7.032;2023-08-12T10:42:45;1.6;;;1.3;;
80910;SDS011;70359;51.420;7.032;2023-08-12T10:44:57;1;;;1;;
80910;SDS011;70359;51.420;7.032;2023-08-12T10:47:14;1;;;1;;
80910;SDS011;70359;51.420;7.032;2023-08-12T10:49:43;1;;;1;;
80910;SDS011;70359;51.420;7.032;2023-08-12T10:52:04;1.3;;;1.2;;
80910;SDS011;70359;51.420;7.032;2023-08-12T10:54:29;1.3;;;1.2;;
80910;SDS011;70359;51.420;7.032;2023-08-12T10:57:12;1.2;;;1.1;;
80910;SDS011;70359;51.420;7.032;2023-08-12T11:01:44;0.9;;;0.8;;
80910;SDS011;70359;51.420;7.032;2023-08-12T11:04:19;0.9;;;0.8;;
80910;SDS011;70359;51.420;7.032;2023-08-12T11:06:42;0.9;;;0.9;;
80910;SDS011;70359;51.420;7.032;2023-08-12T11:08:59;0.9;;;0.9;;
80910;SDS011;70359;51.420;7.032;2023-08-12T11:11:27;1;;;0.8;;
80910;SDS011;70359;51.420;7.032;2023-08-12T11:13:52;1;;;0.8;;
80910;SDS011;70359;51.420;7.032;2023-08-12T11:16:14;1;;;0.8;;
80910;SDS011;70359;51.420;7.032;2023-08-12T11:18:43;1;;;0.8;;
80910;SDS011;70359;51.420;7.032;2023-08-12T11:21:04;0.9;;;0.8;;
80910;SDS011;70359;51.420;7.032;2023-08-12T11:23:29;0.9;;;0.8;;
80910;SDS011;70359;51.420;7.032;2023-08-12T11:25:58;1.1;;;0.6;;
80910;SDS011;70359;51.420;7.032;2023-08-12T11:28:19;1.1;;;0.6;;
80910;SDS011;70359;51.420;7.032;2023-08-12T11:30:44;0.6;;;0.6;;
80910;SDS011;70359;51.420;7.032;2023-08-12T11:33:15;0.6;;;0.6;;
80910;SDS011;70359;51.420;7.032;2023-08-12T11:35:34;0.6;;;0.5;;
80910;SDS011;70359;51.420;7.032;2023-08-12T11:37:59;0.6;;;0.5;;
80910;SDS011;70359;51.420;7.032;2023-08-12T11:40:25;2;;;0.7;;
80910;SDS011;70359;51.420;7.032;2023-08-12T11:42:54;2;;;0.7;;
80910;SDS011;70359;51.420;7.032;2023-08-12T11:45:16;0.8;;;0.7;;
80910;SDS011;70359;51.420;7.032;2023-08-12T11:47:40;0.8;;;0.7;;
80910;SDS011;70359;51.420;7.032;2023-08-12T11:50:06;0.7;;;0.6;;
80910;SDS011;70359;51.420;7.032;2023-08-12T11:52:33;0.7;;;0.6;;
80910;SDS011;70359;51.420;7.032;2023-08-12T11:54:54;1;;;0.7;;
80910;SDS011;70359;51.420;7.032;2023-08-12T11:57:23;1;;;0.7;;
80910;SDS011;70359;51.420;7.032;2023-08-12T11:59:44;1;;;0.7;;
80910;SDS011;70359;51.420;7.032;2023-08-12T12:02:10;0.7;;;0.6;;
80910;SDS011;70359;51.420;7.032;2023-08-12T12:04:34;0.7;;;0.6;;
80910;SDS011;70359;51.420;7.032;2023-08-12T12:06:59;1;;;0.9;;
80910;SDS011;70359;51.420;7.032;2023-08-12T12:09:24;1;;;0.9;;
80910;SDS011;70359;51.420;7.032;2023-08-12T12:11:52;0.6;;;0.6;;
80910;SDS011;70359;51.420;7.032;2023-08-12T12:14:14;0.6;;;0.6;;
80910;SDS011;70359;51.420;7.032;2023-08-12T12:16:47;1.2;;;0.7;;
80910;SDS011;70359;51.420;7.032;2023-08-12T12:19:04;1.2;;;0.7;;
80910;SDS011;70359;51.420;7.032;2023-08-12T12:21:33;0.9;;;0.8;;
80910;SDS011;70359;51.420;7.032;2023-08-12T12:23:56;0.9;;;0.8;;
80910;SDS011;70359;51.420;7.032;2023-08-12T12:26:19;0.7;;;0.7;;
80910;SDS011;70359;51.420;7.032;2023-08-12T12:28:44;0.7;;;0.7;;
80910;SDS011;70359;51.420;7.032;2023-08-12T12:31:09;1.1;;;1;;
80910;SDS011;70359;51.420;7.032;2023-08-12T12:33:34;1.1;;;1;;
80910;SDS011;70359;51.420;7.032;2023-08-12T12:35:59;1;;;0.9;;
80910;SDS011;70359;51.420;7.032;2023-08-12T12:38:24;1;;;0.9;;
80910;SDS011;70359;51.420;7.032;2023-08-12T12:40:49;0.9;;;0.9;;
80910;SDS011;70359;51.420;7.032;2023-08-12T12:43:14;0.9;;;0.9;;
80910;SDS011;70359;51.420;7.032;2023-08-12T12:45:39;1.4;;;1.1;;
80910;SDS011;70359;51.420;7.032;2023-08-12T12:48:04;1.4;;;1.1;;
80910;SDS011;70359;51.420;7.032;2023-08-12T12:50:29;1.8;;;1.4;;
80910;SDS011;70359;51.420;7.032;2023-08-12T12:52:54;1.8;;;1.4;;
80910;SDS011;70359;51.420;7.032;2023-08-12T12:55:19;2.1;;;1.9;;
80910;SDS011;70359;51.420;7.032;2023-08-12T12:57:44;2.1;;;1.9;;
80910;SDS011;70359;51.420;7.032;2023-08-12T13:00:11;2.1;;;1.9;;
80910;SDS011;70359;51.420;7.032;2023-08-12T13:02:34;2.1;;;1.9;;
80910;SDS011;70359;51.420;7.032;2023-08-12T13:04:59;2.4;;;1.9;;
80910;SDS011;70359;51.420;7.032;2023-08-12T13:07:24;2.4;;;1.9;;
80910;SDS011;70359;51.420;7.032;2023-08-12T13:09:49;2.4;;;1.9;;
80910;SDS011;70359;51.420;7.032;2023-08-12T13:12:14;3.1;;;1.6;;
80910;SDS011;70359;51.420;7.032;2023-08-12T13:14:39;3.1;;;1.6;;
80910;SDS011;70359;51.420;7.032;2023-08-12T13:17:04;1.8;;;1.7;;
80910;SDS011;70359;51.420;7.032;2023-08-12T13:19:29;1.8;;;1.7;;
80910;SDS011;70359;51.420;7.032;2023-08-12T13:21:54;2.3;;;2.1;;
80910;SDS011;70359;51.420;7.032;2023-08-12T13:24:19;2.3;;;2.1;;
80910;SDS011;70359;51.420;7.032;2023-08-12T13:26:44;2.1;;;1.9;;
80910;SDS011;70359;51.420;7.032;2023-08-12T13:29:09;2.1;;;1.9;;
80910;SDS011;70359;51.420;7.032;2023-08-12T13:31:34;4;;;3.6;;
80910;SDS011;70359;51.420;7.032;2023-08-12T13:33:59;4;;;3.6;;
80910;SDS011;70359;51.420;7.032;2023-08-12T13:36:24;3.9;;;3.5;;
80910;SDS011;70359;51.420;7.032;2023-08-12T13:38:49;3.9;;;3.5;;
80910;SDS011;70359;51.420;7.032;2023-08-12T13:41:14;4.2;;;3.9;;
80910;SDS011;70359;51.420;7.032;2023-08-12T13:43:39;4.2;;;3.9;;
80910;SDS011;70359;51.420;7.032;2023-08-12T13:46:04;5.1;;;4.6;;
80910;SDS011;70359;51.420;7.032;2023-08-12T13:48:29;5.1;;;4.6;;
80910;SDS011;70359;51.420;7.032;2023-08-12T13:50:58;5.2;;;4.8;;
80910;SDS011;70359;51.420;7.032;2023-08-12T13:53:19;5.2;;;4.8;;
80910;SDS011;70359;51.420;7.032;2023-08-12T13:55:44;4.9;;;4;;
80910;SDS011;70359;51.420;7.032;2023-08-12T13:58:09;4.9;;;4;;
80910;SDS011;70359;51.420;7.032;2023-08-12T14:00:34;3.3;;;3;;
80910;SDS011;70359;51.420;7.032;2023-08-12T14:02:59;3.3;;;3;;
80910;SDS011;70359;51.420;7.032;2023-08-12T14:05:24;2.3;;;2.1;;
80910;SDS011;70359;51.420;7.032;2023-08-12T14:07:49;2.3;;;2.1;;
80910;SDS011;70359;51.420;7.032;2023-08-12T14:10:14;3.5;;;2;;
80910;SDS011;70359;51.420;7.032;2023-08-12T14:12:39;3.5;;;2;;
80910;SDS011;70359;51.420;7.032;2023-08-12T14:15:05;3.5;;;2;;
80910;SDS011;70359;51.420;7.032;2023-08-12T14:17:33;1.9;;;1.8;;
80910;SDS011;70359;51.420;7.032;2023-08-12T14:19:54;1.9;;;1.8;;
80910;SDS011;70359;51.420;7.032;2023-08-12T14:22:19;2.2;;;2;;
80910;SDS011;70359;51.420;7.032;2023-08-12T14:24:48;2.2;;;2;;
80910;SDS011;70359;51.420;7.032;2023-08-12T14:27:09;1.4;;;1.3;;
80910;SDS011;70359;51.420;7.032;2023-08-12T14:29:34;1.4;;;1.3;;
80910;SDS011;70359;51.420;7.032;2023-08-12T14:31:59;2.8;;;2.6;;
80910;SDS011;70359;51.420;7.032;2023-08-12T14:34:24;2.8;;;2.6;;
80910;SDS011;70359;51.420;7.032;2023-08-12T14:36:49;3.6;;;3.1;;
80910;SDS011;70359;51.420;7.032;2023-08-12T14:39:14;3.6;;;3.1;;
80910;SDS011;70359;51.420;7.032;2023-08-12T14:41:39;4.2;;;3.8;;
80910;SDS011;70359;51.420;7.032;2023-08-12T14:44:04;4.2;;;3.8;;
80910;SDS011;70359;51.420;7.032;2023-08-12T14:46:29;4.3;;;3.9;;
80910;SDS011;70359;51.420;7.032;2023-08-12T14:48:54;4.3;;;3.9;;
80910;SDS011;70359;51.420;7.032;2023-08-12T14:51:19;4.3;;;3.9;;
80910;SDS011;70359;51.420;7.032;2023-08-12T14:53:44;4.3;;;3.9;;
80910;SDS011;70359;51.420;7.032;2023-08-12T14:56:09;4.7;;;4.3;;
80910;SDS011;70359;51.420;7.032;2023-08-12T14:58:34;4.7;;;4.3;;
80910;SDS011;70359;51.420;7.032;2023-08-12T15:00:59;5;;;4.5;;
80910;SDS011;70359;51.420;7.032;2023-08-12T15:03:24;5;;;4.5;;
80910;SDS011;70359;51.420;7.032;2023-08-12T15:05:58;4.7;;;4.3;;
80910;SDS011;70359;51.420;7.032;2023-08-12T15:08:14;4.7;;;4.3;;
80910;SDS011;70359;51.420;7.032;2023-08-12T15:10:39;2.7;;;2.5;;